sensor_id;sensor_type;location;lat;lon;timestamp;P1;durP1;ratioP1;P2;durP2;ratioP2
71238;SDS011;61342;51.442;7.370;2022-11-14T00:00:11;11.60;;;8.47;;
71238;SDS011;61342;51.442;7.370;2022-11-14T00:01:12;10.07;;;8.10;;
71238;SDS011;61342;51.442;7.370;2022-11-14T00:02:12;9.87;;;8.07;;
71238;SDS011;61342;51.442;7.370;2022-11-14T00:03:15;10.27;;;8.23;;
71238;SDS011;61342;51.442;7.370;2022-11-14T00:04:15;9.47;;;7.90;;
71238;SDS011;61342;51.442;7.370;2022-11-14T00:05:15;8.80;;;7.77;;
71238;SDS011;61342;51.442;7.370;2022-11-14T00:06:17;12.27;;;7.90;;
71238;SDS011;61342;51.442;7.370;2022-11-14T00:07:18;9.37;;;7.57;;
71238;SDS011;61342;51.442;7.370;2022-11-14T00:08:19;10.13;;;7.47;;
71238;SDS011;61342;51.442;7.370;2022-11-14T00:09:25;9.53;;;7.50;;
71238;SDS011;61342;51.442;7.370;2022-11-14T00:10:26;10.67;;;8.23;;
71238;SDS011;61342;51.442;7.370;2022-11-14T00:11:26;9.30;;;7.60;;
71238;SDS011;61342;51.442;7.370;2022-11-14T00:12:27;11.23;;;8.23;;
71238;SDS011;61342;51.442;7.370;2022-11-14T00:13:27;10.53;;;7.60;;
71238;SDS011;61342;51.442;7.370;2022-11-14T00:14:27;11.33;;;7.77;;
71238;SDS011;61342;51.442;7.370;2022-11-14T00:15:28;9.77;;;7.67;;
71238;SDS011;61342;51.442;7.370;2022-11-14T00:16:28;10.17;;;7.90;;
71238;SDS011;61342;51.442;7.370;2022-11-14T00:17:28;10.50;;;8.10;;
71238;SDS011;61342;51.442;7.370;2022-11-14T00:18:29;10.60;;;7.63;;
71238;SDS011;61342;51.442;7.370;2022-11-14T00:19:29;11.67;;;8.07;;
71238;SDS011;61342;51.442;7.370;2022-11-14T00:20:30;13.23;;;8.57;;
71238;SDS011;61342;51.442;7.370;2022-11-14T00:21:31;12.07;;;8.00;;
71238;SDS011;61342;51.442;7.370;2022-11-14T00:22:31;12.67;;;8.30;;
71238;SDS011;61342;51.442;7.370;2022-11-14T00:23:32;9.83;;;7.47;;
71238;SDS011;61342;51.442;7.370;2022-11-14T00:24:32;10.67;;;7.93;;
71238;SDS011;61342;51.442;7.370;2022-11-14T00:25:33;11.83;;;8.57;;
71238;SDS011;61342;51.442;7.370;2022-11-14T00:26:33;9.03;;;7.50;;
71238;SDS011;61342;51.442;7.370;2022-11-14T00:27:34;10.67;;;8.50;;
71238;SDS011;61342;51.442;7.370;2022-11-14T00:28:34;10.30;;;8.17;;
71238;SDS011;61342;51.442;7.370;2022-11-14T00:29:35;11.27;;;8.23;;
71238;SDS011;61342;51.442;7.370;2022-11-14T00:30:35;11.33;;;8.93;;
71238;SDS011;61342;51.442;7.370;2022-11-14T00:31:35;12.40;;;8.47;;
71238;SDS011;61342;51.442;7.370;2022-11-14T00:32:36;10.70;;;8.13;;
71238;SDS011;61342;51.442;7.370;2022-11-14T00:33:36;13.30;;;8.07;;
71238;SDS011;61342;51.442;7.370;2022-11-14T00:34:37;11.37;;;8.13;;
71238;SDS011;61342;51.442;7.370;2022-11-14T00:35:38;9.87;;;7.50;;
71238;SDS011;61342;51.442;7.370;2022-11-14T00:36:38;10.93;;;7.93;;
71238;SDS011;61342;51.442;7.370;2022-11-14T00:37:39;9.83;;;7.80;;
71238;SDS011;61342;51.442;7.370;2022-11-14T00:38:39;11.23;;;8.30;;
71238;SDS011;61342;51.442;7.370;2022-11-14T00:39:39;11.80;;;7.77;;
71238;SDS011;61342;51.442;7.370;2022-11-14T00:40:40;12.17;;;8.50;;
71238;SDS011;61342;51.442;7.370;2022-11-14T00:41:40;10.63;;;8.43;;
71238;SDS011;61342;51.442;7.370;2022-11-14T00:42:41;10.27;;;7.80;;
71238;SDS011;61342;51.442;7.370;2022-11-14T00:43:41;10.53;;;7.90;;
71238;SDS011;61342;51.442;7.370;2022-11-14T00:44:42;10.57;;;8.13;;
71238;SDS011;61342;51.442;7.370;2022-11-14T00:45:43;11.77;;;8.33;;
71238;SDS011;61342;51.442;7.370;2022-11-14T00:46:44;10.60;;;8.17;;
71238;SDS011;61342;51.442;7.370;2022-11-14T00:47:44;9.93;;;7.80;;
71238;SDS011;61342;51.442;7.370;2022-11-14T00:48:44;9.40;;;7.97;;
71238;SDS011;61342;51.442;7.370;2022-11-14T00:49:45;10.97;;;7.90;;
71238;SDS011;61342;51.442;7.370;2022-11-14T00:50:45;10.53;;;8.53;;
71238;SDS011;61342;51.442;7.370;2022-11-14T00:51:45;10.10;;;7.53;;
71238;SDS011;61342;51.442;7.370;2022-11-14T00:52:46;8.93;;;8.03;;
71238;SDS011;61342;51.442;7.370;2022-11-14T00:53:46;12.70;;;8.23;;
71238;SDS011;61342;51.442;7.370;2022-11-14T00:54:46;10.23;;;7.87;;
71238;SDS011;61342;51.442;7.370;2022-11-14T00:55:47;10.77;;;8.23;;
71238;SDS011;61342;51.442;7.370;2022-11-14T00:56:47;9.50;;;7.53;;
71238;SDS011;61342;51.442;7.370;2022-11-14T00:57:47;9.33;;;7.87;;
71238;SDS011;61342;51.442;7.370;2022-11-14T00:58:48;10.40;;;7.77;;
71238;SDS011;61342;51.442;7.370;2022-11-14T00:59:48;12.30;;;7.27;;
71238;SDS011;61342;51.442;7.370;2022-11-14T01:00:49;11.23;;;7.30;;
71238;SDS011;61342;51.442;7.370;2022-11-14T01:01:51;11.20;;;8.37;;
71238;SDS011;61342;51.442;7.370;2022-11-14T01:02:51;9.70;;;7.60;;
71238;SDS011;61342;51.442;7.370;2022-11-14T01:03:55;8.53;;;7.43;;
71238;SDS011;61342;51.442;7.370;2022-11-14T01:04:56;11.27;;;7.60;;
71238;SDS011;61342;51.442;7.370;2022-11-14T01:05:56;10.53;;;7.87;;
71238;SDS011;61342;51.442;7.370;2022-11-14T01:06:56;8.47;;;7.13;;
71238;SDS011;61342;51.442;7.370;2022-11-14T01:07:57;9.53;;;7.57;;
71238;SDS011;61342;51.442;7.370;2022-11-14T01:08:57;11.13;;;7.37;;
71238;SDS011;61342;51.442;7.370;2022-11-14T01:09:57;9.10;;;7.40;;
71238;SDS011;61342;51.442;7.370;2022-11-14T01:10:58;9.30;;;6.97;;
71238;SDS011;61342;51.442;7.370;2022-11-14T01:11:59;9.47;;;7.83;;
71238;SDS011;61342;51.442;7.370;2022-11-14T01:12:59;11.77;;;7.67;;
71238;SDS011;61342;51.442;7.370;2022-11-14T01:14:00;9.17;;;6.83;;
71238;SDS011;61342;51.442;7.370;2022-11-14T01:15:00;10.43;;;7.80;;
71238;SDS011;61342;51.442;7.370;2022-11-14T01:16:00;8.27;;;7.37;;
71238;SDS011;61342;51.442;7.370;2022-11-14T01:17:01;8.80;;;7.10;;
71238;SDS011;61342;51.442;7.370;2022-11-14T01:18:01;11.67;;;7.97;;
71238;SDS011;61342;51.442;7.370;2022-11-14T01:19:02;9.83;;;7.80;;
71238;SDS011;61342;51.442;7.370;2022-11-14T01:20:03;10.13;;;7.40;;
71238;SDS011;61342;51.442;7.370;2022-11-14T01:21:06;8.63;;;6.97;;
71238;SDS011;61342;51.442;7.370;2022-11-14T01:22:08;10.83;;;7.73;;
71238;SDS011;61342;51.442;7.370;2022-11-14T01:23:09;11.43;;;7.20;;
71238;SDS011;61342;51.442;7.370;2022-11-14T01:24:10;9.37;;;7.03;;
71238;SDS011;61342;51.442;7.370;2022-11-14T01:25:10;8.57;;;6.83;;
71238;SDS011;61342;51.442;7.370;2022-11-14T01:26:12;7.80;;;6.80;;
71238;SDS011;61342;51.442;7.370;2022-11-14T01:27:13;9.63;;;7.73;;
71238;SDS011;61342;51.442;7.370;2022-11-14T01:28:15;9.87;;;7.47;;
71238;SDS011;61342;51.442;7.370;2022-11-14T01:29:17;10.03;;;7.40;;
71238;SDS011;61342;51.442;7.370;2022-11-14T01:30:18;12.07;;;7.67;;
71238;SDS011;61342;51.442;7.370;2022-11-14T01:31:19;9.43;;;7.03;;
71238;SDS011;61342;51.442;7.370;2022-11-14T01:32:21;10.77;;;7.07;;
71238;SDS011;61342;51.442;7.370;2022-11-14T01:33:22;11.07;;;7.07;;
71238;SDS011;61342;51.442;7.370;2022-11-14T01:34:22;7.57;;;6.40;;
71238;SDS011;61342;51.442;7.370;2022-11-14T01:35:22;8.43;;;7.40;;
71238;SDS011;61342;51.442;7.370;2022-11-14T01:36:23;8.87;;;7.20;;
71238;SDS011;61342;51.442;7.370;2022-11-14T01:37:23;7.90;;;6.83;;
71238;SDS011;61342;51.442;7.370;2022-11-14T01:38:23;8.37;;;6.73;;
71238;SDS011;61342;51.442;7.370;2022-11-14T01:39:27;11.10;;;7.17;;
71238;SDS011;61342;51.442;7.370;2022-11-14T01:40:27;8.67;;;7.00;;
71238;SDS011;61342;51.442;7.370;2022-11-14T01:41:28;9.07;;;7.33;;
71238;SDS011;61342;51.442;7.370;2022-11-14T01:42:28;11.17;;;7.17;;
71238;SDS011;61342;51.442;7.370;2022-11-14T01:43:30;8.27;;;7.07;;
71238;SDS011;61342;51.442;7.370;2022-11-14T01:46:51;11.73;;;7.80;;
71238;SDS011;61342;51.442;7.370;2022-11-14T01:47:55;10.60;;;7.70;;
71238;SDS011;61342;51.442;7.370;2022-11-14T01:48:57;10.10;;;7.30;;
71238;SDS011;61342;51.442;7.370;2022-11-14T01:50:03;8.27;;;7.37;;
71238;SDS011;61342;51.442;7.370;2022-11-14T01:51:18;12.67;;;7.07;;
71238;SDS011;61342;51.442;7.370;2022-11-14T01:52:27;8.77;;;7.77;;
71238;SDS011;61342;51.442;7.370;2022-11-14T01:53:33;8.10;;;6.83;;
71238;SDS011;61342;51.442;7.370;2022-11-14T01:54:36;9.77;;;7.20;;
71238;SDS011;61342;51.442;7.370;2022-11-14T01:55:37;8.33;;;7.03;;
71238;SDS011;61342;51.442;7.370;2022-11-14T01:56:45;10.33;;;7.50;;
71238;SDS011;61342;51.442;7.370;2022-11-14T01:57:51;9.07;;;6.80;;
71238;SDS011;61342;51.442;7.370;2022-11-14T01:58:53;10.47;;;7.17;;
71238;SDS011;61342;51.442;7.370;2022-11-14T02:00:04;9.70;;;7.53;;
71238;SDS011;61342;51.442;7.370;2022-11-14T02:01:07;9.17;;;6.90;;
71238;SDS011;61342;51.442;7.370;2022-11-14T02:02:09;9.43;;;7.47;;
71238;SDS011;61342;51.442;7.370;2022-11-14T02:03:15;13.37;;;6.93;;
71238;SDS011;61342;51.442;7.370;2022-11-14T02:04:22;8.37;;;6.90;;
71238;SDS011;61342;51.442;7.370;2022-11-14T02:05:26;10.43;;;7.57;;
71238;SDS011;61342;51.442;7.370;2022-11-14T02:06:28;9.10;;;6.90;;
71238;SDS011;61342;51.442;7.370;2022-11-14T02:07:31;9.53;;;7.20;;
71238;SDS011;61342;51.442;7.370;2022-11-14T02:08:33;10.67;;;6.90;;
71238;SDS011;61342;51.442;7.370;2022-11-14T02:09:35;10.43;;;7.17;;
71238;SDS011;61342;51.442;7.370;2022-11-14T02:10:37;8.53;;;7.20;;
71238;SDS011;61342;51.442;7.370;2022-11-14T02:11:39;8.03;;;7.10;;
71238;SDS011;61342;51.442;7.370;2022-11-14T02:12:41;9.23;;;6.83;;
71238;SDS011;61342;51.442;7.370;2022-11-14T02:13:42;9.93;;;6.47;;
71238;SDS011;61342;51.442;7.370;2022-11-14T02:14:43;11.33;;;7.20;;
71238;SDS011;61342;51.442;7.370;2022-11-14T02:15:45;7.93;;;6.37;;
71238;SDS011;61342;51.442;7.370;2022-11-14T02:16:46;8.07;;;6.50;;
71238;SDS011;61342;51.442;7.370;2022-11-14T02:17:47;8.93;;;6.40;;
71238;SDS011;61342;51.442;7.370;2022-11-14T02:18:47;7.53;;;5.60;;
71238;SDS011;61342;51.442;7.370;2022-11-14T02:19:49;6.47;;;5.63;;
71238;SDS011;61342;51.442;7.370;2022-11-14T02:20:51;6.23;;;5.57;;
71238;SDS011;61342;51.442;7.370;2022-11-14T02:21:51;9.83;;;6.13;;
71238;SDS011;61342;51.442;7.370;2022-11-14T02:22:52;6.67;;;5.40;;
71238;SDS011;61342;51.442;7.370;2022-11-14T02:23:52;8.97;;;6.10;;
71238;SDS011;61342;51.442;7.370;2022-11-14T02:24:52;9.37;;;5.53;;
71238;SDS011;61342;51.442;7.370;2022-11-14T02:25:53;8.23;;;5.30;;
71238;SDS011;61342;51.442;7.370;2022-11-14T02:26:54;6.03;;;5.40;;
71238;SDS011;61342;51.442;7.370;2022-11-14T02:27:54;9.50;;;5.73;;
71238;SDS011;61342;51.442;7.370;2022-11-14T02:28:56;7.07;;;5.60;;
71238;SDS011;61342;51.442;7.370;2022-11-14T02:30:19;7.20;;;6.00;;
71238;SDS011;61342;51.442;7.370;2022-11-14T02:31:19;7.30;;;5.90;;
71238;SDS011;61342;51.442;7.370;2022-11-14T02:32:19;8.47;;;5.87;;
71238;SDS011;61342;51.442;7.370;2022-11-14T02:33:19;7.03;;;5.57;;
71238;SDS011;61342;51.442;7.370;2022-11-14T02:34:20;7.30;;;6.50;;
71238;SDS011;61342;51.442;7.370;2022-11-14T02:35:20;8.77;;;6.20;;
71238;SDS011;61342;51.442;7.370;2022-11-14T02:36:21;10.47;;;6.27;;
71238;SDS011;61342;51.442;7.370;2022-11-14T02:37:21;10.30;;;6.20;;
71238;SDS011;61342;51.442;7.370;2022-11-14T02:38:21;10.23;;;6.47;;
71238;SDS011;61342;51.442;7.370;2022-11-14T02:39:22;7.30;;;6.37;;
71238;SDS011;61342;51.442;7.370;2022-11-14T02:40:22;8.13;;;5.97;;
71238;SDS011;61342;51.442;7.370;2022-11-14T02:41:23;9.27;;;6.03;;
71238;SDS011;61342;51.442;7.370;2022-11-14T02:42:23;8.53;;;6.00;;
71238;SDS011;61342;51.442;7.370;2022-11-14T02:43:23;9.37;;;6.17;;
71238;SDS011;61342;51.442;7.370;2022-11-14T02:44:24;8.37;;;6.10;;
71238;SDS011;61342;51.442;7.370;2022-11-14T02:45:24;7.93;;;6.57;;
71238;SDS011;61342;51.442;7.370;2022-11-14T02:46:28;8.00;;;5.80;;
71238;SDS011;61342;51.442;7.370;2022-11-14T02:47:29;8.40;;;6.60;;
71238;SDS011;61342;51.442;7.370;2022-11-14T02:48:29;6.80;;;5.77;;
71238;SDS011;61342;51.442;7.370;2022-11-14T02:49:29;9.67;;;6.30;;
71238;SDS011;61342;51.442;7.370;2022-11-14T02:50:30;8.37;;;5.97;;
71238;SDS011;61342;51.442;7.370;2022-11-14T02:51:30;6.80;;;6.07;;
71238;SDS011;61342;51.442;7.370;2022-11-14T02:52:30;9.80;;;6.67;;
71238;SDS011;61342;51.442;7.370;2022-11-14T02:53:31;8.37;;;6.00;;
71238;SDS011;61342;51.442;7.370;2022-11-14T02:54:31;7.03;;;5.90;;
71238;SDS011;61342;51.442;7.370;2022-11-14T02:55:31;7.33;;;6.00;;
71238;SDS011;61342;51.442;7.370;2022-11-14T02:56:31;9.17;;;6.17;;
71238;SDS011;61342;51.442;7.370;2022-11-14T02:57:32;7.97;;;6.47;;
71238;SDS011;61342;51.442;7.370;2022-11-14T02:58:32;6.90;;;6.10;;
71238;SDS011;61342;51.442;7.370;2022-11-14T02:59:33;8.50;;;6.27;;
71238;SDS011;61342;51.442;7.370;2022-11-14T03:00:33;7.30;;;5.80;;
71238;SDS011;61342;51.442;7.370;2022-11-14T03:01:33;9.27;;;6.63;;
71238;SDS011;61342;51.442;7.370;2022-11-14T03:02:34;9.60;;;6.63;;
71238;SDS011;61342;51.442;7.370;2022-11-14T03:03:34;8.63;;;6.57;;
71238;SDS011;61342;51.442;7.370;2022-11-14T03:04:34;7.70;;;6.00;;
71238;SDS011;61342;51.442;7.370;2022-11-14T03:05:35;10.27;;;6.60;;
71238;SDS011;61342;51.442;7.370;2022-11-14T03:06:35;7.50;;;6.40;;
71238;SDS011;61342;51.442;7.370;2022-11-14T03:07:36;9.37;;;6.40;;
71238;SDS011;61342;51.442;7.370;2022-11-14T03:08:36;7.20;;;5.90;;
71238;SDS011;61342;51.442;7.370;2022-11-14T03:09:37;9.17;;;6.20;;
71238;SDS011;61342;51.442;7.370;2022-11-14T03:10:37;7.00;;;6.13;;
71238;SDS011;61342;51.442;7.370;2022-11-14T03:11:38;7.87;;;6.27;;
71238;SDS011;61342;51.442;7.370;2022-11-14T03:12:38;9.00;;;6.30;;
71238;SDS011;61342;51.442;7.370;2022-11-14T03:13:39;7.53;;;6.20;;
71238;SDS011;61342;51.442;7.370;2022-11-14T03:14:39;8.73;;;6.80;;
71238;SDS011;61342;51.442;7.370;2022-11-14T03:15:39;7.70;;;6.13;;
71238;SDS011;61342;51.442;7.370;2022-11-14T03:16:40;8.00;;;6.93;;
71238;SDS011;61342;51.442;7.370;2022-11-14T03:17:40;9.50;;;6.60;;
71238;SDS011;61342;51.442;7.370;2022-11-14T03:18:40;8.97;;;7.10;;
71238;SDS011;61342;51.442;7.370;2022-11-14T03:19:41;8.63;;;6.73;;
71238;SDS011;61342;51.442;7.370;2022-11-14T03:20:41;8.33;;;6.23;;
71238;SDS011;61342;51.442;7.370;2022-11-14T03:21:41;10.20;;;6.20;;
71238;SDS011;61342;51.442;7.370;2022-11-14T03:22:42;9.27;;;7.10;;
71238;SDS011;61342;51.442;7.370;2022-11-14T03:23:42;8.20;;;6.57;;
71238;SDS011;61342;51.442;7.370;2022-11-14T03:24:43;8.40;;;6.33;;
71238;SDS011;61342;51.442;7.370;2022-11-14T03:25:43;9.03;;;6.50;;
71238;SDS011;61342;51.442;7.370;2022-11-14T03:26:43;10.00;;;6.53;;
71238;SDS011;61342;51.442;7.370;2022-11-14T03:27:44;7.97;;;6.40;;
71238;SDS011;61342;51.442;7.370;2022-11-14T03:28:44;9.23;;;6.67;;
71238;SDS011;61342;51.442;7.370;2022-11-14T03:29:48;9.30;;;6.67;;
71238;SDS011;61342;51.442;7.370;2022-11-14T03:30:49;12.43;;;6.90;;
71238;SDS011;61342;51.442;7.370;2022-11-14T03:31:49;9.00;;;6.60;;
71238;SDS011;61342;51.442;7.370;2022-11-14T03:32:49;9.03;;;7.07;;
71238;SDS011;61342;51.442;7.370;2022-11-14T03:33:50;8.80;;;6.97;;
71238;SDS011;61342;51.442;7.370;2022-11-14T03:34:50;9.23;;;7.13;;
71238;SDS011;61342;51.442;7.370;2022-11-14T03:35:50;9.57;;;7.50;;
71238;SDS011;61342;51.442;7.370;2022-11-14T03:36:51;7.77;;;6.97;;
71238;SDS011;61342;51.442;7.370;2022-11-14T03:37:51;10.30;;;7.63;;
71238;SDS011;61342;51.442;7.370;2022-11-14T03:38:52;9.97;;;7.27;;
71238;SDS011;61342;51.442;7.370;2022-11-14T03:39:52;9.43;;;7.37;;
71238;SDS011;61342;51.442;7.370;2022-11-14T03:40:52;11.90;;;6.83;;
71238;SDS011;61342;51.442;7.370;2022-11-14T03:41:53;10.60;;;6.70;;
71238;SDS011;61342;51.442;7.370;2022-11-14T03:42:53;8.97;;;7.33;;
71238;SDS011;61342;51.442;7.370;2022-11-14T03:43:56;10.40;;;7.03;;
71238;SDS011;61342;51.442;7.370;2022-11-14T03:44:56;9.80;;;8.07;;
71238;SDS011;61342;51.442;7.370;2022-11-14T03:46:00;9.50;;;7.10;;
71238;SDS011;61342;51.442;7.370;2022-11-14T03:47:01;11.27;;;7.60;;
71238;SDS011;61342;51.442;7.370;2022-11-14T03:48:02;8.17;;;7.17;;
71238;SDS011;61342;51.442;7.370;2022-11-14T03:49:04;9.87;;;7.60;;
71238;SDS011;61342;51.442;7.370;2022-11-14T03:50:04;11.97;;;8.43;;
71238;SDS011;61342;51.442;7.370;2022-11-14T03:51:05;11.23;;;8.87;;
71238;SDS011;61342;51.442;7.370;2022-11-14T03:52:05;13.10;;;9.20;;
71238;SDS011;61342;51.442;7.370;2022-11-14T03:53:05;10.67;;;9.20;;
71238;SDS011;61342;51.442;7.370;2022-11-14T03:54:06;13.43;;;9.90;;
71238;SDS011;61342;51.442;7.370;2022-11-14T03:55:07;13.87;;;10.23;;
71238;SDS011;61342;51.442;7.370;2022-11-14T03:56:07;14.27;;;10.07;;
71238;SDS011;61342;51.442;7.370;2022-11-14T03:57:07;13.60;;;10.13;;
71238;SDS011;61342;51.442;7.370;2022-11-14T03:58:08;16.57;;;10.33;;
71238;SDS011;61342;51.442;7.370;2022-11-14T03:59:08;12.23;;;9.93;;
71238;SDS011;61342;51.442;7.370;2022-11-14T04:00:09;14.50;;;10.50;;
71238;SDS011;61342;51.442;7.370;2022-11-14T04:01:10;12.50;;;10.17;;
71238;SDS011;61342;51.442;7.370;2022-11-14T04:02:10;12.53;;;10.23;;
71238;SDS011;61342;51.442;7.370;2022-11-14T04:03:11;15.90;;;10.27;;
71238;SDS011;61342;51.442;7.370;2022-11-14T04:04:11;13.57;;;10.80;;
71238;SDS011;61342;51.442;7.370;2022-11-14T04:05:12;11.87;;;10.23;;
71238;SDS011;61342;51.442;7.370;2022-11-14T04:06:12;12.07;;;9.93;;
71238;SDS011;61342;51.442;7.370;2022-11-14T04:07:14;14.53;;;10.40;;
71238;SDS011;61342;51.442;7.370;2022-11-14T04:08:14;12.47;;;9.57;;
71238;SDS011;61342;51.442;7.370;2022-11-14T04:09:14;13.20;;;9.53;;
71238;SDS011;61342;51.442;7.370;2022-11-14T04:10:15;12.23;;;9.80;;
71238;SDS011;61342;51.442;7.370;2022-11-14T04:11:17;11.47;;;9.70;;
71238;SDS011;61342;51.442;7.370;2022-11-14T04:12:18;11.63;;;9.70;;
71238;SDS011;61342;51.442;7.370;2022-11-14T04:13:18;13.27;;;9.60;;
71238;SDS011;61342;51.442;7.370;2022-11-14T04:14:18;11.30;;;9.60;;
71238;SDS011;61342;51.442;7.370;2022-11-14T04:15:19;13.43;;;9.97;;
71238;SDS011;61342;51.442;7.370;2022-11-14T04:16:20;10.17;;;8.87;;
71238;SDS011;61342;51.442;7.370;2022-11-14T04:17:20;11.93;;;9.27;;
71238;SDS011;61342;51.442;7.370;2022-11-14T04:18:20;10.67;;;8.33;;
71238;SDS011;61342;51.442;7.370;2022-11-14T04:19:21;10.10;;;8.20;;
71238;SDS011;61342;51.442;7.370;2022-11-14T04:20:21;10.60;;;8.17;;
71238;SDS011;61342;51.442;7.370;2022-11-14T04:21:22;10.83;;;8.73;;
71238;SDS011;61342;51.442;7.370;2022-11-14T04:22:22;10.43;;;8.50;;
71238;SDS011;61342;51.442;7.370;2022-11-14T04:23:22;9.50;;;8.23;;
71238;SDS011;61342;51.442;7.370;2022-11-14T04:24:23;10.23;;;8.60;;
71238;SDS011;61342;51.442;7.370;2022-11-14T04:25:23;10.50;;;8.27;;
71238;SDS011;61342;51.442;7.370;2022-11-14T04:26:23;8.97;;;7.77;;
71238;SDS011;61342;51.442;7.370;2022-11-14T04:27:24;9.43;;;8.27;;
71238;SDS011;61342;51.442;7.370;2022-11-14T04:28:24;9.60;;;8.33;;
71238;SDS011;61342;51.442;7.370;2022-11-14T04:29:24;11.30;;;8.20;;
71238;SDS011;61342;51.442;7.370;2022-11-14T04:30:25;10.70;;;8.43;;
71238;SDS011;61342;51.442;7.370;2022-11-14T04:31:25;9.40;;;8.00;;
71238;SDS011;61342;51.442;7.370;2022-11-14T04:32:25;10.77;;;8.80;;
71238;SDS011;61342;51.442;7.370;2022-11-14T04:33:26;10.10;;;8.07;;
71238;SDS011;61342;51.442;7.370;2022-11-14T04:34:26;10.00;;;7.63;;
71238;SDS011;61342;51.442;7.370;2022-11-14T04:35:27;9.37;;;7.97;;
71238;SDS011;61342;51.442;7.370;2022-11-14T04:36:27;9.43;;;7.90;;
71238;SDS011;61342;51.442;7.370;2022-11-14T04:37:27;10.67;;;8.60;;
71238;SDS011;61342;51.442;7.370;2022-11-14T04:38:28;10.43;;;8.20;;
71238;SDS011;61342;51.442;7.370;2022-11-14T04:39:28;10.43;;;7.77;;
71238;SDS011;61342;51.442;7.370;2022-11-14T04:40:29;12.00;;;7.37;;
71238;SDS011;61342;51.442;7.370;2022-11-14T04:41:29;11.93;;;8.53;;
71238;SDS011;61342;51.442;7.370;2022-11-14T04:42:29;10.57;;;8.00;;
71238;SDS011;61342;51.442;7.370;2022-11-14T04:43:30;8.67;;;7.73;;
71238;SDS011;61342;51.442;7.370;2022-11-14T04:44:30;10.33;;;7.90;;
71238;SDS011;61342;51.442;7.370;2022-11-14T04:45:30;9.93;;;6.93;;
71238;SDS011;61342;51.442;7.370;2022-11-14T04:46:31;9.47;;;6.70;;
71238;SDS011;61342;51.442;7.370;2022-11-14T04:47:31;9.43;;;7.30;;
71238;SDS011;61342;51.442;7.370;2022-11-14T04:48:32;9.23;;;6.80;;
71238;SDS011;61342;51.442;7.370;2022-11-14T04:49:32;9.47;;;7.63;;
71238;SDS011;61342;51.442;7.370;2022-11-14T04:50:32;9.23;;;7.43;;
71238;SDS011;61342;51.442;7.370;2022-11-14T04:51:32;10.10;;;6.70;;
71238;SDS011;61342;51.442;7.370;2022-11-14T04:52:33;8.60;;;6.97;;
71238;SDS011;61342;51.442;7.370;2022-11-14T04:53:33;10.73;;;7.50;;
71238;SDS011;61342;51.442;7.370;2022-11-14T04:54:34;10.10;;;7.47;;
71238;SDS011;61342;51.442;7.370;2022-11-14T04:55:34;13.13;;;10.27;;
71238;SDS011;61342;51.442;7.370;2022-11-14T04:56:34;18.50;;;13.47;;
71238;SDS011;61342;51.442;7.370;2022-11-14T04:57:35;50.00;;;29.93;;
71238;SDS011;61342;51.442;7.370;2022-11-14T04:58:35;34.03;;;23.70;;
71238;SDS011;61342;51.442;7.370;2022-11-14T04:59:36;23.23;;;16.93;;
71238;SDS011;61342;51.442;7.370;2022-11-14T05:00:36;18.27;;;13.80;;
71238;SDS011;61342;51.442;7.370;2022-11-14T05:01:36;20.97;;;15.33;;
71238;SDS011;61342;51.442;7.370;2022-11-14T05:02:37;20.33;;;15.13;;
71238;SDS011;61342;51.442;7.370;2022-11-14T05:03:37;19.53;;;14.67;;
71238;SDS011;61342;51.442;7.370;2022-11-14T05:04:37;21.33;;;13.53;;
71238;SDS011;61342;51.442;7.370;2022-11-14T05:05:38;18.03;;;14.00;;
71238;SDS011;61342;51.442;7.370;2022-11-14T05:06:38;19.07;;;13.33;;
71238;SDS011;61342;51.442;7.370;2022-11-14T05:07:38;18.90;;;13.20;;
71238;SDS011;61342;51.442;7.370;2022-11-14T05:08:39;18.37;;;12.90;;
71238;SDS011;61342;51.442;7.370;2022-11-14T05:09:39;16.00;;;12.67;;
71238;SDS011;61342;51.442;7.370;2022-11-14T05:10:43;16.83;;;12.43;;
71238;SDS011;61342;51.442;7.370;2022-11-14T05:11:44;14.20;;;11.27;;
71238;SDS011;61342;51.442;7.370;2022-11-14T05:12:44;12.87;;;11.20;;
71238;SDS011;61342;51.442;7.370;2022-11-14T05:13:45;13.20;;;10.97;;
71238;SDS011;61342;51.442;7.370;2022-11-14T05:14:45;13.37;;;10.57;;
71238;SDS011;61342;51.442;7.370;2022-11-14T05:15:46;11.67;;;9.53;;
71238;SDS011;61342;51.442;7.370;2022-11-14T05:16:46;12.73;;;10.60;;
71238;SDS011;61342;51.442;7.370;2022-11-14T05:17:47;10.63;;;9.07;;
71238;SDS011;61342;51.442;7.370;2022-11-14T05:18:47;13.90;;;8.87;;
71238;SDS011;61342;51.442;7.370;2022-11-14T05:19:47;13.40;;;9.83;;
71238;SDS011;61342;51.442;7.370;2022-11-14T05:20:48;11.47;;;9.00;;
71238;SDS011;61342;51.442;7.370;2022-11-14T05:21:48;11.10;;;9.30;;
71238;SDS011;61342;51.442;7.370;2022-11-14T05:22:51;10.87;;;8.90;;
71238;SDS011;61342;51.442;7.370;2022-11-14T05:23:53;11.10;;;8.90;;
71238;SDS011;61342;51.442;7.370;2022-11-14T05:24:53;10.20;;;8.30;;
71238;SDS011;61342;51.442;7.370;2022-11-14T05:25:59;21.77;;;15.33;;
71238;SDS011;61342;51.442;7.370;2022-11-14T05:27:04;91.67;;;47.20;;
71238;SDS011;61342;51.442;7.370;2022-11-14T05:28:05;63.70;;;35.93;;
71238;SDS011;61342;51.442;7.370;2022-11-14T05:29:05;31.40;;;19.77;;
71238;SDS011;61342;51.442;7.370;2022-11-14T05:30:06;24.93;;;15.70;;
71238;SDS011;61342;51.442;7.370;2022-11-14T05:31:08;16.43;;;11.03;;
71238;SDS011;61342;51.442;7.370;2022-11-14T05:32:11;11.60;;;9.40;;
71238;SDS011;61342;51.442;7.370;2022-11-14T05:33:11;10.87;;;9.03;;
71238;SDS011;61342;51.442;7.370;2022-11-14T05:34:11;12.60;;;9.37;;
71238;SDS011;61342;51.442;7.370;2022-11-14T05:35:12;11.80;;;8.40;;
71238;SDS011;61342;51.442;7.370;2022-11-14T05:36:13;9.70;;;8.00;;
71238;SDS011;61342;51.442;7.370;2022-11-14T05:37:15;11.37;;;8.83;;
71238;SDS011;61342;51.442;7.370;2022-11-14T05:38:15;11.60;;;8.00;;
71238;SDS011;61342;51.442;7.370;2022-11-14T05:39:16;10.77;;;8.07;;
71238;SDS011;61342;51.442;7.370;2022-11-14T05:40:16;10.83;;;8.60;;
71238;SDS011;61342;51.442;7.370;2022-11-14T05:41:18;10.17;;;8.23;;
71238;SDS011;61342;51.442;7.370;2022-11-14T05:42:21;9.23;;;7.80;;
71238;SDS011;61342;51.442;7.370;2022-11-14T05:43:22;8.77;;;7.63;;
71238;SDS011;61342;51.442;7.370;2022-11-14T05:44:22;10.63;;;7.83;;
71238;SDS011;61342;51.442;7.370;2022-11-14T05:45:22;10.77;;;7.63;;
71238;SDS011;61342;51.442;7.370;2022-11-14T05:46:23;7.93;;;6.50;;
71238;SDS011;61342;51.442;7.370;2022-11-14T05:47:23;8.83;;;6.73;;
71238;SDS011;61342;51.442;7.370;2022-11-14T05:48:23;9.60;;;6.57;;
71238;SDS011;61342;51.442;7.370;2022-11-14T05:49:24;8.17;;;6.83;;
71238;SDS011;61342;51.442;7.370;2022-11-14T05:50:24;7.90;;;7.10;;
71238;SDS011;61342;51.442;7.370;2022-11-14T05:51:25;7.30;;;6.23;;
71238;SDS011;61342;51.442;7.370;2022-11-14T05:52:25;9.50;;;6.80;;
71238;SDS011;61342;51.442;7.370;2022-11-14T05:53:26;7.73;;;6.27;;
71238;SDS011;61342;51.442;7.370;2022-11-14T05:54:27;8.57;;;6.23;;
71238;SDS011;61342;51.442;7.370;2022-11-14T05:55:28;8.63;;;7.10;;
71238;SDS011;61342;51.442;7.370;2022-11-14T05:56:28;9.67;;;6.43;;
71238;SDS011;61342;51.442;7.370;2022-11-14T05:57:29;8.13;;;6.20;;
71238;SDS011;61342;51.442;7.370;2022-11-14T05:58:30;8.07;;;6.47;;
71238;SDS011;61342;51.442;7.370;2022-11-14T05:59:31;8.57;;;6.83;;
71238;SDS011;61342;51.442;7.370;2022-11-14T06:00:31;6.97;;;5.80;;
71238;SDS011;61342;51.442;7.370;2022-11-14T06:01:32;10.20;;;6.23;;
71238;SDS011;61342;51.442;7.370;2022-11-14T06:02:32;7.57;;;6.33;;
71238;SDS011;61342;51.442;7.370;2022-11-14T06:03:33;8.03;;;6.50;;
71238;SDS011;61342;51.442;7.370;2022-11-14T06:04:34;8.27;;;6.17;;
71238;SDS011;61342;51.442;7.370;2022-11-14T06:05:35;8.77;;;6.63;;
71238;SDS011;61342;51.442;7.370;2022-11-14T06:06:35;9.77;;;6.50;;